Adrian, Michigan
Current Conditions -  °F | °C
As of 10:53 AM on Monday 26 Jan 2015 (Local Time) from KADG Reporting Station
Clear Clear  
Wind Chill: -14°   Ceiling: Unl
Heat Index: -8°   Visibility: 10mi
Dew Point: -13°   Wind: 8mph
Humidity: 68%   Direction: 60°ENE
Pressure: 29.94"   Gusts: NA
Location:  41.9°N, 84.04°W
Report Text: KADG 261553Z AUTO 06007KT 10SM CLR M08/M13 A2994 RMK AO2 SLP155 T10831133
Loading
Personal Weather Stations






























Interactive Weather Map New forecast layout! Learn more

10-Day Weather Forecast

Advertisements
Track Severe Weather on mobile